Date,TemperatureHighF,TemperatureAvgF,TemperatureLowF,DewpointHighF,DewpointAvgF,DewpointLowF,HumidityHigh,HumidityAvg,HumidityLow,PressureMaxIn,PressureMinIn,WindSpeedMaxMPH,WindSpeedAvgMPH,GustSpeedMaxMPH,PrecipitationSumIn
2013-3-1,39.0,33.6,31.0,34.0,31.6,29.0,96,93,80,0.00,40.00,5,3,11,0.15
2013-3-2,34.0,31.0,29.0,30.0,26.3,18.0,95,83,71,0.00,40.00,4,3,12,0.16
2013-3-3,43.0,32.6,20.0,25.0,17.1,14.0,82,54,32,0.00,40.00,5,2,13,0.01
2013-3-4,61.0,46.3,35.0,37.0,23.9,17.0,71,43,27,0.00,40.00,11,6,22,0.01
2013-3-5,51.0,41.8,33.0,51.0,37.0,19.0,99,84,57,0.00,40.00,11,6,28,0.52
2013-3-6,43.0,35.7,32.0,27.0,24.7,23.0,77,64,49,0.00,40.00,10,6,25,0.02
2013-3-7,44.0,35.2,29.0,27.0,25.3,23.0,80,68,50,0.00,40.00,6,3,12,0.00
2013-3-8,56.0,40.9,29.0,29.0,25.9,23.0,87,60,28,0.00,40.00,8,5,15,0.00
2013-3-9,67.0,53.1,40.0,33.0,28.0,25.0,63,40,21,0.00,40.00,7,5,17,0.00
2013-3-10,68.0,60.1,52.0,54.0,42.1,33.0,99,55,32,0.00,40.00,11,7,28,1.29
2013-3-11,53.0,43.9,38.0,53.0,38.1,29.0,99,81,63,0.00,40.00,10,5,21,1.86
2013-3-12,52.0,40.6,28.0,30.0,26.0,20.0,94,60,29,0.00,40.00,7,4,16,0.01
2013-3-13,45.0,38.1,29.0,25.0,19.4,16.0,61,48,34,0.00,40.00,9,5,20,0.00
2013-3-14,45.0,34.0,24.0,34.0,23.6,18.0,96,68,36,0.00,40.00,5,2,13,0.15
2013-3-15,76.0,55.9,33.0,48.0,38.8,30.0,94,56,33,0.00,40.00,8,5,19,0.04
2013-3-16,73.0,62.7,47.0,49.0,45.7,39.0,74,55,42,0.00,40.00,11,6,20,0.01
2013-3-17,46.0,42.7,41.0,43.0,40.2,37.0,96,91,76,0.00,40.00,9,6,17,0.61
2013-3-18,52.0,46.0,38.0,49.0,43.4,35.0,99,91,77,0.00,40.00,7,4,18,0.59
2013-3-19,55.0,42.7,32.0,37.0,22.9,9.0,98,55,17,0.00,40.00,6,2,14,0.08
2013-3-20,46.0,37.3,28.0,29.0,22.1,14.0,74,54,39,0.00,40.00,10,4,21,0.00
2013-3-21,43.0,31.2,20.0,16.0,12.4,8.0,73,48,27,0.00,40.00,6,3,13,0.00
2013-3-22,43.0,36.1,33.0,23.0,14.4,-99.9,52,45,42,0.00,40.00,6,4,11,0.00
2013-3-23,56.0,46.8,40.0,44.0,31.1,24.0,88,56,41,0.00,40.00,8,5,16,0.17
2013-3-24,47.0,41.3,34.0,44.0,39.1,28.0,97,92,77,0.00,40.00,11,6,27,0.63
2013-3-25,36.0,33.9,32.0,30.0,27.3,24.0,90,77,64,0.00,40.00,10,8,26,0.01
2013-3-26,42.0,35.3,31.0,31.0,27.0,24.0,94,73,51,0.00,40.00,7,4,15,0.14
2013-3-27,51.0,38.0,25.0,26.0,23.7,21.0,91,60,35,0.00,40.00,5,2,13,0.04
2013-3-28,60.0,55.7,50.0,32.0,30.2,29.0,50,38,31,0.00,40.00,5,3,11,0.00
2013-3-29,57.0,49.1,43.0,47.0,42.6,33.0,96,79,53,0.00,40.00,8,3,14,0.59
2013-3-30,54.0,48.5,44.0,50.0,44.0,-99.9,99,90,71,0.00,40.00,6,3,11,0.39
2013-3-31,63.0,53.8,50.0,52.0,48.7,44.0,100,84,53,0.00,40.00,5,3,9,0.34